Purdue University Airport Lafayette US
ICAO: KLAF
IATA: LAF
Category: Medium
Scheduled Services: No

Elevation: 606 ft
TransAlt. 18000 ft.

Airport Communications:
ASOS:127.75
ATIS:127.75
CHICAGO CNTR:123.85
CTAF:119.6
GND:121.9
TERRE HAUTE RDO:122.2
LAFAYETTE TWR:119.6
UNICOM:122.95

KLAF Zoom In..

If Map Doesn't Load, Click Here

Runways:

(A) RW 05 length 4225 ft width 100 ft
---- / hdg 51

(B) RW 10 length 6600 ft width 150 ft
ILS 110.30 / hdg 100

(C) RW 23 length 4225 ft width 100 ft
---- / hdg 231

(D) RW 28 length 6600 ft width 150 ft
---- / hdg 280

Location; KLAF
Day. 21 / Time. 14.11 Zulu
* Altimeter: 29.92
* Temperature: 22° c. 71.6°f.
* Wind from: 210° Speed 06 kn.
Dewpoint: 21° c.
Visibility: 9 Statute Miles.
Clouds: Few 900 ft.
Clouds: Scattered 4900 ft.
Clouds: Scattered 11000 ft.

KLAF 211411Z 21006KT 9SM FEW009 SCT049 SCT110 22/21 A2992 RMK AO2 LTG DSNT E RAE02 P0000 T02170211


Wind From 210°
Speed 06 kn.

 
 
jpsmedia.com for Web Design worldairports.se 2018   terms of use